Time;durP1;ratioP1;P1;durP2;ratioP2;P2;SDS_P1;SDS_P2;PMS_P1;PMS_P2;Temp;Humidity;BMP_temperature;BMP_pressure;BME280_temperature;BME280_humidity;BME280_pressure;Samples;Min_cycle;Max_cycle;Signal;HPM_P1;HPM_P2
2024/02/16 00:00:34;;;;;;;11.65;10.55;;;;;;;7.37;100.00;150522.91;10630485;27;20092;-77
2024/02/16 00:05:36;;;;;;;13.10;11.77;;;;;;;7.34;100.00;150517.75;10631113;27;20560;-77
2024/02/16 00:10:38;;;;;;;12.80;11.52;;;;;;;7.36;100.00;150521.63;10611270;27;20039;-77
2024/02/16 00:15:40;;;;;;;14.85;10.75;;;;;;;7.39;100.00;150529.34;10631007;27;20437;-76
2024/02/16 00:20:42;;;;;;;12.80;10.52;;;;;;;7.41;100.00;150533.22;10612574;27;20407;-77
2024/02/16 00:25:45;;;;;;;12.60;11.30;;;;;;;7.34;100.00;150517.75;10629467;27;20036;-77
2024/02/16 00:30:48;;;;;;;11.63;10.43;;;;;;;7.36;100.00;150520.34;10594418;27;20044;-77
2024/02/16 00:35:52;;;;;;;10.60;9.50;;;;;;;7.39;100.00;150528.03;10628906;27;20057;-76
2024/02/16 00:40:54;;;;;;;13.77;11.40;;;;;;;7.48;100.00;150552.56;10614276;27;20048;-77
2024/02/16 00:45:57;;;;;;;11.20;9.60;;;;;;;7.55;100.00;150570.56;10631634;27;20099;-78
2024/02/16 00:50:59;;;;;;;11.43;10.23;;;;;;;7.34;100.00;150516.44;10629734;27;20515;-76
2024/02/16 00:56:01;;;;;;;12.50;10.27;;;;;;;7.25;100.00;150493.28;10613087;27;20051;-76
2024/02/16 01:01:04;;;;;;;10.52;9.43;;;;;;;7.24;100.00;150492.00;10630163;27;20031;-77
2024/02/16 01:06:08;;;;;;;12.00;9.68;;;;;;;7.16;100.00;150470.09;10628911;27;20073;-77
2024/02/16 01:11:10;;;;;;;11.02;9.93;;;;;;;7.06;100.00;150446.94;10609414;27;20525;-76
2024/02/16 01:16:12;;;;;;;9.60;8.57;;;;;;;7.07;100.00;150448.22;10628402;27;20091;-77
2024/02/16 01:21:14;;;;;;;9.48;8.20;;;;;;;7.03;100.00;150439.19;10609276;27;20174;-77
2024/02/16 01:26:16;;;;;;;11.77;8.50;;;;;;;7.02;100.00;150436.63;10628504;27;20065;-76
2024/02/16 01:31:18;;;;;;;10.27;9.02;;;;;;;7.15;100.00;150468.81;10627205;27;20387;-77
2024/02/16 01:36:19;;;;;;;11.25;9.68;;;;;;;7.13;100.00;150463.69;10626806;27;20051;-76
2024/02/16 01:41:21;;;;;;;10.45;8.68;;;;;;;7.15;100.00;150467.53;10628971;27;20126;-77
2024/02/16 01:46:23;;;;;;;9.02;8.13;;;;;;;7.11;100.00;150457.22;10607892;27;20047;-77
2024/02/16 01:51:25;;;;;;;8.68;7.78;;;;;;;7.07;100.00;150449.50;10626914;27;20518;-77
2024/02/16 01:56:28;;;;;;;9.25;8.18;;;;;;;7.07;100.00;150448.22;10628393;27;20039;-76
2024/02/16 02:01:30;;;;;;;10.68;9.32;;;;;;;7.07;100.00;150449.50;10626222;27;20067;-77
2024/02/16 02:06:32;;;;;;;11.35;9.15;;;;;;;7.12;100.00;150459.78;10626120;27;20039;-77
2024/02/16 02:11:34;;;;;;;10.57;8.73;;;;;;;7.03;100.00;150437.91;10634309;27;20509;-76
2024/02/16 02:16:37;;;;;;;10.48;8.48;;;;;;;6.93;100.00;150412.16;10636122;27;20406;-75
2024/02/16 02:21:56;;;;;;;9.25;8.30;;;;;;;6.97;100.00;150422.47;10636784;27;20039;-77
2024/02/16 02:26:58;;;;;;;10.23;9.23;;;;;;;6.99;100.00;150428.88;10633984;27;20047;-76
2024/02/16 02:32:00;;;;;;;9.32;8.07;;;;;;;6.87;100.00;150396.75;10615537;27;20047;-76
2024/02/16 02:37:03;;;;;;;9.70;8.63;;;;;;;6.80;100.00;150381.25;10632761;27;20039;-76
2024/02/16 02:42:07;;;;;;;13.85;10.15;;;;;;;6.65;100.00;150341.38;10633271;27;20403;-77
2024/02/16 02:47:09;;;;;;;9.98;8.98;;;;;;;6.70;100.00;150355.53;10614503;27;20466;-77
2024/02/16 02:52:10;;;;;;;11.68;9.32;;;;;;;6.72;100.00;150360.66;10614776;27;20138;-77
2024/02/16 02:57:12;;;;;;;10.55;9.50;;;;;;;6.75;100.00;150367.09;10632983;27;20092;-77
2024/02/16 03:02:14;;;;;;;12.50;10.13;;;;;;;6.72;100.00;150360.66;10632945;27;20084;-76
2024/02/16 03:07:17;;;;;;;11.65;9.48;;;;;;;6.75;100.00;150367.09;10614134;27;20043;-77
2024/02/16 03:12:19;;;;;;;11.55;10.45;;;;;;;6.88;100.00;150400.59;10632700;27;20062;-77
2024/02/16 03:17:21;;;;;;;13.68;9.90;;;;;;;6.90;100.00;150405.72;10634564;27;20039;-75
2024/02/16 03:22:22;;;;;;;11.57;10.38;;;;;;;6.93;100.00;150413.44;10633885;27;20403;-75
2024/02/16 03:27:24;;;;;;;13.50;10.77;;;;;;;7.08;100.00;150452.09;10634176;27;20099;-75
2024/02/16 03:32:26;;;;;;;11.07;10.05;;;;;;;7.19;100.00;150479.13;10616116;27;20070;-75
2024/02/16 03:37:28;;;;;;;12.93;10.65;;;;;;;7.16;100.00;150470.09;10634990;27;20117;-75
2024/02/16 03:42:31;;;;;;;14.85;11.27;;;;;;;7.14;100.00;150466.25;10632431;27;20042;-75
2024/02/16 03:47:33;;;;;;;11.15;9.90;;;;;;;7.14;100.00;150464.97;10633290;27;20092;-75
2024/02/16 03:52:35;;;;;;;16.58;11.40;;;;;;;7.22;100.00;150486.88;10632483;27;20043;-75
2024/02/16 03:57:40;;;;;;;13.93;11.70;;;;;;;7.20;100.00;150480.41;10632940;27;20130;-76
2024/02/16 04:02:42;;;;;;;11.15;9.98;;;;;;;7.21;100.00;150482.97;10614914;27;20077;-76
2024/02/16 04:07:44;;;;;;;12.48;11.25;;;;;;;7.24;100.00;150490.72;10631995;27;20054;-75
2024/02/16 04:12:45;;;;;;;12.20;10.40;;;;;;;7.15;100.00;150467.53;10631913;27;20054;-75
2024/02/16 04:17:48;;;;;;;12.25;10.95;;;;;;;7.23;100.00;150489.44;10612078;27;20043;-75
2024/02/16 04:22:50;;;;;;;12.93;10.27;;;;;;;7.04;100.00;150440.53;10629729;27;20046;-76
2024/02/16 04:27:53;;;;;;;11.32;10.13;;;;;;;6.95;100.00;150418.63;10610970;27;20074;-76
2024/02/16 04:32:55;;;;;;;11.95;10.20;;;;;;;6.86;100.00;150395.41;10610444;27;20425;-75
2024/02/16 04:37:57;;;;;;;12.90;9.70;;;;;;;6.93;100.00;150413.44;10629157;27;20039;-76
2024/02/16 04:42:59;;;;;;;13.05;9.52;;;;;;;7.02;100.00;150436.63;10628464;27;20039;-75
2024/02/16 04:48:07;;;;;;;10.05;8.55;;;;;;;6.86;100.00;150394.13;10629331;27;20063;-75
2024/02/16 04:53:09;;;;;;;11.63;10.43;;;;;;;6.95;100.00;150418.63;10609403;27;20499;-75
2024/02/16 04:58:11;;;;;;;11.43;9.65;;;;;;;6.90;100.00;150405.72;10628799;27;20081;-75
2024/02/16 05:03:13;;;;;;;12.80;10.23;;;;;;;6.81;100.00;150382.53;10627135;27;20505;-75
2024/02/16 05:08:15;;;;;;;11.48;10.18;;;;;;;6.64;100.00;150338.75;10626657;27;20062;-76
2024/02/16 05:13:17;;;;;;;10.85;9.75;;;;;;;6.57;100.00;150323.34;10628016;27;20070;-75
2024/02/16 05:18:22;;;;;;;12.55;10.68;;;;;;;6.54;100.00;150315.59;10627024;27;20115;-76
2024/02/16 05:23:24;;;;;;;11.57;10.38;;;;;;;6.58;100.00;150324.63;10608262;27;20092;-76
2024/02/16 05:28:25;;;;;;;13.18;11.75;;;;;;;6.62;100.00;150334.91;10609364;27;20047;-76
2024/02/16 05:33:27;;;;;;;12.43;11.15;;;;;;;6.71;100.00;150358.09;10626367;27;20046;-76
2024/02/16 05:38:34;;;;;;;16.90;12.50;;;;;;;7.03;100.00;150439.19;10627529;27;20121;-76
2024/02/16 05:43:38;;;;;;;13.02;11.80;;;;;;;6.99;100.00;150427.59;10608822;27;20051;-75
2024/02/16 05:48:40;;;;;;;13.90;12.30;;;;;;;7.16;100.00;150470.09;10627462;27;20123;-76
2024/02/16 05:53:42;;;;;;;15.20;13.70;;;;;;;7.40;100.00;150530.66;10626568;27;20498;-74
2024/02/16 05:58:43;;;;;;;14.45;13.02;;;;;;;7.49;100.00;150553.84;10626265;27;20118;-75
2024/02/16 06:03:45;;;;;;;15.32;13.80;;;;;;;7.77;100.00;150624.69;10607720;28;20039;-74
2024/02/16 06:08:47;;;;;;;15.82;13.32;;;;;;;7.72;100.00;150611.81;10625669;28;20051;-75
2024/02/16 06:13:49;;;;;;;15.38;13.98;;;;;;;7.74;100.00;150616.94;10625402;28;20043;-76
2024/02/16 06:18:51;;;;;;;14.02;12.63;;;;;;;7.88;100.00;150651.72;10608281;28;20047;-76
2024/02/16 06:23:53;;;;;;;16.77;15.00;;;;;;;7.66;100.00;150596.31;10625374;28;20118;-74
2024/02/16 06:28:55;;;;;;;14.60;13.27;;;;;;;7.76;100.00;150623.41;10625925;28;20043;-75
2024/02/16 06:33:57;;;;;;;15.93;14.23;;;;;;;7.87;100.00;150649.16;10606896;28;20050;-75
2024/02/16 06:38:59;;;;;;;15.93;14.25;;;;;;;7.79;100.00;150631.13;10606622;28;20109;-74
2024/02/16 06:44:01;;;;;;;14.63;13.25;;;;;;;7.85;100.00;150645.31;10606637;28;20066;-75
2024/02/16 06:49:03;;;;;;;15.05;13.60;;;;;;;7.78;100.00;150627.25;10624599;28;20091;-75
2024/02/16 06:54:05;;;;;;;16.77;13.75;;;;;;;7.78;100.00;150627.25;10608702;27;20563;-75
2024/02/16 06:59:08;;;;;;;15.32;13.73;;;;;;;7.76;100.00;150623.41;10632609;27;20450;-75
2024/02/16 07:04:10;;;;;;;17.17;15.43;;;;;;;8.00;100.00;150682.66;10613754;27;20479;-75
2024/02/16 07:09:15;;;;;;;15.73;13.98;;;;;;;8.47;100.00;150802.56;10631962;27;20126;-76
2024/02/16 07:14:17;;;;;;;15.73;14.10;;;;;;;8.94;100.00;150921.22;10613460;27;20042;-76
2024/02/16 07:19:18;;;;;;;14.23;12.75;;;;;;;8.75;100.00;150872.19;10631227;27;20046;-74
2024/02/16 07:24:20;;;;;;;13.73;12.43;;;;;;;8.73;100.00;150868.34;10631721;27;20080;-75
2024/02/16 07:29:22;;;;;;;14.90;13.35;;;;;;;8.81;100.00;150887.69;10632460;27;20043;-75
2024/02/16 07:34:24;;;;;;;15.50;14.00;;;;;;;8.87;100.00;150901.84;10613489;27;20031;-74
2024/02/16 07:39:26;;;;;;;17.05;15.38;;;;;;;8.78;100.00;150881.22;10632421;27;20047;-76
2024/02/16 07:44:28;;;;;;;15.35;13.95;;;;;;;8.70;100.00;150859.28;10630935;27;20035;-76
2024/02/16 07:49:30;;;;;;;16.25;14.60;;;;;;;8.68;100.00;150854.16;10631347;27;20130;-75
2024/02/16 07:54:32;;;;;;;15.85;14.18;;;;;;;8.90;100.00;150910.88;10629286;27;20066;-76
2024/02/16 07:59:34;;;;;;;17.10;15.38;;;;;;;9.21;100.00;150989.56;10611234;27;20043;-75
2024/02/16 08:04:35;;;;;;;15.18;13.80;;;;;;;9.35;100.00;151025.66;10629311;27;20035;-75
2024/02/16 08:09:37;;;;;;;15.02;13.63;;;;;;;9.29;100.00;151008.88;10629242;27;20046;-74
2024/02/16 08:14:40;;;;;;;16.25;14.73;;;;;;;9.30;100.00;151012.78;10629989;27;20035;-76
2024/02/16 08:19:41;;;;;;;16.42;13.63;;;;;;;9.52;100.00;151066.97;10629894;27;20089;-75
2024/02/16 08:24:46;;;;;;;14.02;12.65;;;;;;;9.56;100.00;151077.25;10629173;27;20051;-75
2024/02/16 08:29:48;;;;;;;15.32;13.82;;;;;;;9.28;100.00;151006.31;10629014;27;20041;-76
2024/02/16 08:34:50;;;;;;;12.95;11.75;;;;;;;9.40;100.00;151036.00;10628789;27;20220;-76
2024/02/16 08:39:53;;;;;;;15.93;13.10;;;;;;;9.52;100.00;151066.97;10612456;27;20053;-75
2024/02/16 08:44:57;;;;;;;13.55;12.05;;;;;;;9.74;100.00;151123.72;10631209;27;20411;-75
2024/02/16 08:49:59;;;;;;;12.55;11.40;;;;;;;9.84;99.16;151148.25;10628144;27;20058;-75
2024/02/16 08:55:01;;;;;;;13.15;11.77;;;;;;;10.05;96.22;151201.16;10609478;27;20474;-76
2024/02/16 09:00:03;;;;;;;13.68;12.32;;;;;;;10.06;97.27;151203.75;10627784;27;20402;-76
2024/02/16 09:05:06;;;;;;;13.07;11.88;;;;;;;10.27;95.08;151258.00;10627039;27;20177;-75
2024/02/16 09:10:08;;;;;;;14.15;12.88;;;;;;;10.55;94.08;151329.00;10624272;27;20513;-75
2024/02/16 09:15:10;;;;;;;13.27;12.07;;;;;;;10.58;93.57;151336.75;10668882;27;20043;-75
2024/02/16 09:20:13;;;;;;;12.68;11.48;;;;;;;10.65;92.80;151352.22;10650870;27;20052;-75
2024/02/16 09:25:15;;;;;;;12.50;11.35;;;;;;;10.83;89.92;151400.00;10670822;27;20042;-76
2024/02/16 09:30:17;;;;;;;13.77;12.45;;;;;;;10.73;93.05;151372.91;10673151;27;20069;-74
2024/02/16 09:35:19;;;;;;;13.70;12.52;;;;;;;11.03;88.58;151450.41;10634175;27;20053;-75
2024/02/16 09:40:22;;;;;;;12.55;11.25;;;;;;;10.95;89.42;151429.72;10649865;27;20069;-76
2024/02/16 09:45:26;;;;;;;13.68;12.40;;;;;;;11.14;88.56;151477.50;10668608;27;20053;-74
2024/02/16 09:50:28;;;;;;;13.95;12.70;;;;;;;11.28;87.87;151513.66;10669045;27;20115;-74
2024/02/16 09:55:33;;;;;;;12.32;11.23;;;;;;;11.31;86.35;151521.41;10619264;27;20142;-76
2024/02/16 10:00:35;;;;;;;12.93;11.73;;;;;;;11.27;84.54;151511.09;10643087;27;20039;-73
2024/02/16 10:05:37;;;;;;;12.82;11.73;;;;;;;11.26;85.38;151508.50;10607798;28;20042;-74
2024/02/16 10:10:39;;;;;;;12.13;11.02;;;;;;;11.40;84.40;151543.38;10606839;28;20570;-74
2024/02/16 10:15:41;;;;;;;12.00;10.98;;;;;;;11.21;86.14;151495.59;10624798;28;20047;-74
2024/02/16 10:20:44;;;;;;;13.20;12.00;;;;;;;11.19;84.92;151490.41;10606471;28;20421;-74
2024/02/16 10:25:46;;;;;;;11.95;10.85;;;;;;;11.36;84.73;151533.03;10625261;28;20146;-75
2024/02/16 10:30:48;;;;;;;12.13;11.05;;;;;;;11.41;83.85;151545.97;10630228;27;20070;-75
2024/02/16 10:35:51;;;;;;;11.43;10.32;;;;;;;11.37;84.71;151536.91;10633301;27;20035;-75
2024/02/16 10:40:56;;;;;;;11.85;10.68;;;;;;;11.59;83.86;151591.19;10633729;27;20046;-75
2024/02/16 10:45:59;;;;;;;11.88;10.52;;;;;;;11.81;80.95;151646.75;10632118;27;20046;-74
2024/02/16 10:51:02;;;;;;;11.40;10.40;;;;;;;11.79;80.22;151642.88;10631863;27;20130;-75
2024/02/16 10:56:07;;;;;;;10.02;9.13;;;;;;;12.00;79.44;151694.66;10613830;27;20062;-75
2024/02/16 11:01:13;;;;;;;10.18;9.25;;;;;;;12.22;78.62;151750.19;10631574;27;20059;-76
2024/02/16 11:06:19;;;;;;;10.63;9.73;;;;;;;12.30;77.98;151772.16;10630101;27;20031;-76
2024/02/16 11:11:24;;;;;;;11.07;10.13;;;;;;;12.42;76.63;151801.94;10612274;27;20047;-75
2024/02/16 11:16:25;;;;;;;9.63;8.82;;;;;;;12.25;78.18;151757.97;10631825;27;20487;-76
2024/02/16 11:21:32;;;;;;;11.68;10.68;;;;;;;12.22;78.07;151750.19;10613780;27;20054;-76
2024/02/16 11:26:45;;;;;;;11.43;10.43;;;;;;;11.92;78.58;151673.97;10632074;27;20080;-75
2024/02/16 11:31:47;;;;;;;9.88;8.98;;;;;;;11.93;79.20;151676.53;10632119;27;20039;-76
2024/02/16 11:36:53;;;;;;;10.48;9.52;;;;;;;12.06;78.96;151710.16;10621585;27;20034;-76
2024/02/16 11:42:03;;;;;;;10.27;9.38;;;;;;;12.09;78.18;151719.22;10617155;27;20036;-76
2024/02/16 11:47:06;;;;;;;10.77;9.88;;;;;;;12.17;78.64;151737.28;10612140;27;20050;-75
2024/02/16 11:52:08;;;;;;;10.35;9.35;;;;;;;12.09;79.11;151719.22;10645406;27;20051;-75
2024/02/16 11:57:10;;;;;;;10.02;9.13;;;;;;;12.35;77.20;151785.16;10593471;27;20043;-77
2024/02/16 12:02:19;;;;;;;9.60;8.85;;;;;;;12.45;77.44;151808.41;10570049;28;20108;-76
2024/02/16 12:07:20;;;;;;;8.90;8.10;;;;;;;12.86;73.49;151914.44;10586636;28;20050;-76
2024/02/16 12:12:23;;;;;;;9.63;8.82;;;;;;;12.56;73.50;151838.13;10647239;27;20410;-76
2024/02/16 12:17:25;;;;;;;8.45;7.65;;;;;;;13.07;73.42;151967.47;10605646;27;20062;-74
2024/02/16 12:22:27;;;;;;;8.88;8.18;;;;;;;13.43;71.25;152058.09;10607417;27;20036;-75
2024/02/16 12:27:29;;;;;;;9.30;8.02;;;;;;;13.77;68.53;152143.50;10589046;28;20408;-76
2024/02/16 12:32:31;;;;;;;9.15;8.18;;;;;;;13.48;69.57;152071.03;10587595;28;20053;-76
2024/02/16 12:37:33;;;;;;;8.80;8.00;;;;;;;13.31;69.96;152027.03;10569945;28;20095;-76
2024/02/16 12:42:35;;;;;;;8.57;7.80;;;;;;;13.19;71.23;151995.91;10567618;28;20460;-75
2024/02/16 12:47:37;;;;;;;8.48;7.68;;;;;;;13.33;70.59;152032.22;10585839;28;20463;-75
2024/02/16 12:52:39;;;;;;;8.55;7.75;;;;;;;13.30;70.82;152025.72;10584227;28;20062;-76
2024/02/16 12:57:55;;;;;;;9.30;8.40;;;;;;;13.52;69.50;152080.09;10570013;28;20510;-76
2024/02/16 13:02:57;;;;;;;8.45;7.75;;;;;;;13.62;69.11;152107.25;10568321;28;20131;-76
2024/02/16 13:07:58;;;;;;;7.32;6.65;;;;;;;13.94;70.03;152187.47;10585838;28;20075;-76
2024/02/16 13:13:00;;;;;;;7.47;6.82;;;;;;;14.03;67.89;152210.81;10585738;28;20507;-76
2024/02/16 13:18:02;;;;;;;6.78;6.00;;;;;;;14.15;67.56;152240.56;10585926;28;20089;-75
2024/02/16 13:23:04;;;;;;;7.30;6.53;;;;;;;14.32;65.59;152284.59;10585292;28;20500;-77
2024/02/16 13:28:08;;;;;;;7.22;6.55;;;;;;;13.96;66.81;152192.69;10585194;28;20044;-75
2024/02/16 13:33:10;;;;;;;8.20;7.50;;;;;;;13.54;69.47;152086.53;10588490;28;20391;-76
2024/02/16 13:38:13;;;;;;;8.00;7.25;;;;;;;13.54;69.11;152085.25;10586048;28;20058;-76
2024/02/16 13:43:16;;;;;;;7.95;7.25;;;;;;;13.48;69.39;152071.03;10567656;28;20163;-76
2024/02/16 13:48:18;;;;;;;8.68;7.97;;;;;;;12.97;70.72;151941.63;10569714;28;20093;-76
2024/02/16 13:53:22;;;;;;;7.65;7.05;;;;;;;13.02;72.48;151954.56;10585329;28;20085;-75
2024/02/16 13:58:24;;;;;;;8.52;7.82;;;;;;;12.84;71.90;151908.00;10585390;28;20411;-76
2024/02/16 14:03:26;;;;;;;8.93;8.13;;;;;;;12.69;73.64;151870.44;10584355;28;20089;-76
2024/02/16 14:08:28;;;;;;;9.10;8.40;;;;;;;12.91;71.25;151924.78;10585937;28;20093;-76
2024/02/16 14:13:30;;;;;;;8.82;8.02;;;;;;;12.88;71.59;151918.28;10587478;28;20468;-77
2024/02/16 14:18:32;;;;;;;9.57;8.68;;;;;;;12.58;72.83;151843.31;10567831;28;20130;-75
2024/02/16 14:23:37;;;;;;;9.23;8.43;;;;;;;12.77;71.78;151891.16;10587162;28;20452;-76
2024/02/16 14:28:38;;;;;;;9.60;8.80;;;;;;;12.62;73.21;151853.66;10567780;28;20488;-77
2024/02/16 14:33:40;;;;;;;11.68;10.57;;;;;;;12.28;75.10;151767.03;10585919;28;20399;-76
2024/02/16 14:38:42;;;;;;;11.82;10.73;;;;;;;12.09;78.00;151717.91;10584748;28;20119;-76
2024/02/16 14:43:44;;;;;;;13.20;12.00;;;;;;;12.14;77.29;151729.56;10585141;28;20059;-75
2024/02/16 14:48:48;;;;;;;13.13;11.80;;;;;;;12.14;77.65;151729.56;10583142;28;20104;-75
2024/02/16 14:53:50;;;;;;;13.30;12.10;;;;;;;12.03;78.47;151702.38;10586945;28;20065;-76
2024/02/16 14:58:52;;;;;;;14.52;13.15;;;;;;;11.95;79.08;151681.69;10584109;28;20059;-76
2024/02/16 15:03:54;;;;;;;14.40;13.10;;;;;;;11.84;79.50;151654.56;10582545;28;20108;-76
2024/02/16 15:08:56;;;;;;;16.35;14.55;;;;;;;11.65;80.36;151606.72;10584841;28;20048;-76
2024/02/16 15:13:58;;;;;;;15.88;14.40;;;;;;;11.81;80.07;151646.75;10583252;28;20063;-75
2024/02/16 15:19:00;;;;;;;17.23;15.48;;;;;;;11.43;81.93;151549.88;10589917;28;20044;-75
2024/02/16 15:24:02;;;;;;;15.27;13.90;;;;;;;11.40;83.06;151542.09;10589548;28;20040;-75
2024/02/16 15:29:04;;;;;;;15.18;13.88;;;;;;;11.39;82.47;151540.81;10589808;28;20047;-74
2024/02/16 15:34:06;;;;;;;15.77;14.35;;;;;;;11.41;82.90;151545.97;10591076;28;20491;-75
2024/02/16 15:39:10;;;;;;;16.08;14.43;;;;;;;11.33;84.04;151526.63;10589726;28;20039;-75
2024/02/16 15:44:12;;;;;;;15.30;13.88;;;;;;;11.33;82.84;151525.28;10571561;28;20054;-76
2024/02/16 15:49:14;;;;;;;16.10;14.68;;;;;;;11.14;84.48;151476.22;10590302;28;20078;-75
2024/02/16 15:54:16;;;;;;;15.95;14.45;;;;;;;11.17;84.82;151483.97;10583280;27;20042;-76
2024/02/16 15:59:19;;;;;;;15.25;13.85;;;;;;;11.23;83.22;151500.75;10651093;27;20051;-76
2024/02/16 16:04:21;;;;;;;15.43;14.00;;;;;;;11.02;84.78;151446.47;10653789;27;20379;-75
2024/02/16 16:09:22;;;;;;;14.98;13.40;;;;;;;11.05;84.38;151454.25;10674565;27;20038;-76
2024/02/16 16:14:24;;;;;;;15.13;13.63;;;;;;;10.71;86.96;151367.72;10673917;27;20030;-76
2024/02/16 16:19:27;;;;;;;14.02;12.57;;;;;;;10.75;86.01;151379.31;10673962;27;20077;-76
2024/02/16 16:24:29;;;;;;;13.70;12.45;;;;;;;10.68;86.42;151361.28;10653929;27;20039;-75
2024/02/16 16:29:30;;;;;;;14.63;13.27;;;;;;;10.83;85.32;151398.72;10643556;27;20035;-75
2024/02/16 16:34:32;;;;;;;18.50;12.50;;;;;;;10.74;85.96;151376.75;10594122;27;20434;-75
2024/02/16 16:39:34;;;;;;;16.85;15.13;;;;;;;10.85;85.75;151405.19;10629177;27;20510;-75
2024/02/16 16:44:36;;;;;;;14.70;13.23;;;;;;;10.77;86.50;151384.53;10628388;27;20078;-75
2024/02/16 16:49:40;;;;;;;14.82;13.43;;;;;;;10.82;86.01;151397.44;10642836;27;20099;-75
2024/02/16 16:54:42;;;;;;;15.85;13.15;;;;;;;10.79;85.75;151389.66;10634433;27;20039;-75
2024/02/16 16:59:44;;;;;;;14.85;13.32;;;;;;;10.67;86.63;151358.72;10670957;27;20039;-74
2024/02/16 17:04:46;;;;;;;15.98;13.93;;;;;;;10.56;87.54;151331.56;10651697;27;20130;-76
2024/02/16 17:09:57;;;;;;;16.02;13.75;;;;;;;10.74;86.49;151375.47;10670671;27;20061;-75
2024/02/16 17:14:59;;;;;;;15.32;13.93;;;;;;;10.56;88.09;151331.56;10670047;27;20060;-74
2024/02/16 17:20:01;;;;;;;13.52;12.07;;;;;;;10.58;88.30;151336.75;10606212;27;20499;-74
2024/02/16 17:25:04;;;;;;;15.80;14.20;;;;;;;10.68;87.60;151361.28;10654396;27;20392;-74
2024/02/16 17:30:07;;;;;;;15.10;13.55;;;;;;;10.54;89.09;151326.44;10670415;27;20045;-74
2024/02/16 17:35:09;;;;;;;16.00;13.80;;;;;;;10.74;87.36;151375.47;10649026;27;20038;-76
2024/02/16 17:40:12;;;;;;;15.52;14.00;;;;;;;10.71;88.68;151369.00;10626522;27;20114;-77
2024/02/16 17:45:14;;;;;;;17.60;15.80;;;;;;;10.82;87.28;151396.13;10628353;27;20050;-75
2024/02/16 17:50:16;;;;;;;15.40;14.00;;;;;;;10.79;87.57;151388.38;10627775;27;20468;-75
2024/02/16 17:55:18;;;;;;;15.32;13.82;;;;;;;10.24;91.90;151250.25;10627989;27;20084;-74
2024/02/16 18:00:20;;;;;;;15.98;14.45;;;;;;;10.52;91.17;151319.94;10628096;27;20406;-75
2024/02/16 18:05:22;;;;;;;15.38;13.52;;;;;;;10.72;88.56;151371.63;10626324;27;20066;-76
2024/02/16 18:10:24;;;;;;;17.55;15.85;;;;;;;10.38;91.15;151285.09;10626610;28;20039;-75
2024/02/16 18:15:26;;;;;;;16.33;14.52;;;;;;;10.46;90.35;151305.75;10608750;28;20445;-75
2024/02/16 18:20:27;;;;;;;15.65;14.02;;;;;;;10.68;88.62;151361.28;10625833;28;20039;-75
2024/02/16 18:25:29;;;;;;;16.75;15.05;;;;;;;10.38;91.14;151285.09;10614131;28;20192;-75
2024/02/16 18:30:31;;;;;;;16.00;14.38;;;;;;;10.61;89.35;151344.47;10583976;28;20130;-74
2024/02/16 18:35:33;;;;;;;15.27;13.88;;;;;;;10.16;92.76;151228.25;10583049;28;20115;-75
2024/02/16 18:40:35;;;;;;;19.23;15.43;;;;;;;10.32;91.98;151269.63;10566344;28;20043;-74
2024/02/16 18:45:39;;;;;;;15.40;13.98;;;;;;;10.42;90.56;151294.13;10583783;28;20492;-75
2024/02/16 18:50:41;;;;;;;19.20;15.75;;;;;;;10.57;89.45;151332.84;10569169;28;20048;-76
2024/02/16 18:55:44;;;;;;;17.35;15.65;;;;;;;10.31;91.77;151267.00;10591720;28;20044;-75
2024/02/16 19:00:46;;;;;;;17.63;15.48;;;;;;;10.48;90.55;151310.91;10592420;28;20075;-75
2024/02/16 19:05:48;;;;;;;17.67;15.98;;;;;;;10.30;91.87;151264.44;10593118;28;20031;-76
2024/02/16 19:10:50;;;;;;;18.15;16.35;;;;;;;10.12;93.27;151219.22;10591909;28;20159;-75
2024/02/16 19:15:52;;;;;;;14.75;13.45;;;;;;;9.90;95.20;151162.41;10590518;28;20071;-76
2024/02/16 19:20:54;;;;;;;17.08;15.30;;;;;;;10.43;92.23;151298.00;10576610;28;20210;-77
2024/02/16 19:25:57;;;;;;;17.77;15.93;;;;;;;10.41;92.32;151291.56;10592773;28;20070;-76
2024/02/16 19:30:58;;;;;;;15.82;14.45;;;;;;;10.48;91.15;151310.91;10593485;28;20054;-75
2024/02/16 19:36:00;;;;;;;17.25;15.55;;;;;;;10.56;91.19;151330.28;10592706;28;20074;-76
2024/02/16 19:41:02;;;;;;;20.05;15.00;;;;;;;10.55;91.42;151329.00;10595626;28;20097;-75
2024/02/16 19:46:04;;;;;;;17.20;15.70;;;;;;;10.41;91.70;151292.84;10572244;28;20074;-76
2024/02/16 19:51:07;;;;;;;16.67;14.38;;;;;;;10.49;91.16;151313.53;10591085;28;20039;-76
2024/02/16 19:56:09;;;;;;;16.02;14.35;;;;;;;10.49;92.42;151312.19;10620081;27;20165;-77
2024/02/16 20:01:11;;;;;;;17.83;16.10;;;;;;;10.40;92.65;151290.22;10583342;28;20097;-75
2024/02/16 20:06:13;;;;;;;16.42;14.93;;;;;;;10.20;93.82;151238.56;10591849;28;20059;-76
2024/02/16 20:11:16;;;;;;;17.65;15.93;;;;;;;10.35;93.96;151278.63;10593412;28;20036;-75
2024/02/16 20:16:18;;;;;;;16.45;14.88;;;;;;;10.11;94.83;151216.63;10592640;28;20096;-77
2024/02/16 20:21:21;;;;;;;16.45;14.85;;;;;;;9.95;96.43;151176.59;10576114;28;20488;-75
2024/02/16 20:26:24;;;;;;;17.65;14.70;;;;;;;9.89;97.48;151161.13;10591774;28;20122;-77
2024/02/16 20:31:26;;;;;;;17.13;15.52;;;;;;;10.02;98.46;151193.41;10593939;28;20050;-76
2024/02/16 20:36:28;;;;;;;17.42;15.32;;;;;;;10.27;95.00;151256.66;10593054;28;20035;-77
2024/02/16 20:41:30;;;;;;;16.20;14.48;;;;;;;9.99;97.65;151185.66;10586512;27;20055;-77
2024/02/16 20:46:32;;;;;;;15.82;14.32;;;;;;;10.06;97.64;151203.75;10634209;27;20039;-77
2024/02/16 20:51:34;;;;;;;17.75;15.32;;;;;;;9.90;99.02;151162.41;10633622;27;20043;-76
2024/02/16 20:56:36;;;;;;;16.23;14.57;;;;;;;10.46;95.73;151305.75;10634192;27;20070;-76
2024/02/16 21:01:41;;;;;;;16.00;14.50;;;;;;;10.31;95.82;151268.34;10632827;27;20181;-75
2024/02/16 21:06:43;;;;;;;15.52;14.10;;;;;;;10.24;95.68;151248.91;10632523;27;20066;-76
2024/02/16 21:11:45;;;;;;;15.93;14.30;;;;;;;10.09;97.99;151212.78;10633415;27;20046;-77
2024/02/16 21:16:47;;;;;;;17.50;14.15;;;;;;;10.12;97.53;151219.22;10632690;27;20031;-77
2024/02/16 21:21:49;;;;;;;16.65;15.02;;;;;;;10.17;98.22;151230.81;10630805;27;20058;-76
2024/02/16 21:26:51;;;;;;;18.15;14.93;;;;;;;10.06;98.84;151205.03;10614180;27;20039;-75
2024/02/16 21:31:53;;;;;;;15.27;13.77;;;;;;;9.91;100.00;151166.28;10612372;27;20525;-76
2024/02/16 21:36:57;;;;;;;16.48;14.77;;;;;;;10.47;97.04;151307.03;10631373;27;20043;-75
2024/02/16 21:41:59;;;;;;;19.70;13.95;;;;;;;10.20;99.10;151238.56;10611728;27;20129;-76
2024/02/16 21:47:04;;;;;;;15.27;13.77;;;;;;;10.23;99.37;151247.63;10630644;27;20032;-77
2024/02/16 21:52:07;;;;;;;19.83;15.55;;;;;;;10.34;98.66;151274.75;10593531;27;20051;-76
2024/02/16 21:57:08;;;;;;;15.85;14.25;;;;;;;10.20;99.80;151238.56;10629847;27;20108;-76
2024/02/16 22:02:10;;;;;;;14.73;13.32;;;;;;;10.11;100.00;151217.91;10611965;27;20162;-76
2024/02/16 22:07:14;;;;;;;16.10;14.30;;;;;;;9.95;100.00;151175.31;10629436;27;20039;-75
2024/02/16 22:12:16;;;;;;;15.65;14.18;;;;;;;10.08;100.00;151210.16;10611827;28;20076;-76
2024/02/16 22:17:18;;;;;;;14.20;12.63;;;;;;;10.04;100.00;151199.84;10629063;28;20039;-76
2024/02/16 22:22:20;;;;;;;16.48;14.10;;;;;;;10.04;100.00;151199.84;10595589;28;20050;-76
2024/02/16 22:27:22;;;;;;;16.15;14.30;;;;;;;10.33;100.00;151272.19;10622929;27;20118;-77
2024/02/16 22:32:24;;;;;;;19.20;14.70;;;;;;;10.34;100.00;151274.75;10626891;27;20055;-76
2024/02/16 22:37:27;;;;;;;14.85;13.35;;;;;;;10.06;100.00;151205.03;10619412;27;20043;-75
2024/02/16 22:42:29;;;;;;;14.80;13.15;;;;;;;10.16;100.00;151229.53;10635701;27;20069;-75